Time;durP1;ratioP1;P1;durP2;ratioP2;P2;SDS_P1;SDS_P2;PMS_P1;PMS_P2;Temp;Humidity;BMP_temperature;BMP_pressure;BME280_temperature;BME280_humidity;BME280_pressure;Samples;Min_cycle;Max_cycle;Signal;HPM_P1;HPM_P2
2022/01/23 00:00:15;;;;;;;;;;;;;;;;;;;;;
2022/01/23 00:02:54;;;;;;;;;;;-1.20;99.90;;;;;;5076964;28;19952;-96
2022/01/23 00:05:33;;;;;;;;;;;;;;;;;;;;;
2022/01/23 00:17:20;;;;;;;;;;;-1.30;99.90;;;;;;5015948;28;19932;-95
2022/01/23 00:20:04;;;;;;;;;;;;;;;;;;;;;
2022/01/23 00:23:02;;;;;;;;;;;-1.40;99.90;;;;;;5054454;28;20363;-95
2022/01/23 00:32:10;;;;;;;;;;;-1.40;99.90;;;;;;5076587;28;19911;-94
2022/01/23 00:34:58;;;;;;;;;;;-1.40;99.90;;;;;;5058667;28;19946;-96
2022/01/23 00:37:26;;;;;;;;;;;-1.50;99.90;;;;;;5059148;28;19944;-95
2022/01/23 00:40:00;;;;;;;;;;;-1.50;99.90;;;;;;5057124;28;19899;-96
2022/01/23 00:45:52;;;;;;;;;;;-1.60;99.90;;;;;;5065570;28;19912;-95
2022/01/23 00:51:51;;;;;;;;;;;;;;;;;;;;;
2022/01/23 00:54:26;;;;;;;;;;;-1.80;99.90;;;;;;5075844;28;19939;-95
2022/01/23 00:56:54;;;;;;;;;;;-1.90;99.90;;;;;;5056655;28;19964;-95
2022/01/23 00:59:31;;;;;;;;;;;-1.90;99.90;;;;;;5055503;28;19893;-94
2022/01/23 01:02:29;;;;;;;;;;;;;;;;;;;;;
2022/01/23 01:05:04;;;;;;;;;;;-1.90;99.90;;;;;;5067266;28;19956;-96
2022/01/23 01:07:35;;;;;;;;;;;-2.00;99.90;;;;;;5058181;28;19920;-95
2022/01/23 01:10:39;;;;;;;;;;;-1.90;99.90;;;;;;5059735;28;19909;-95
2022/01/23 01:13:05;;;;;;;;;;;-1.90;99.90;;;;;;5073040;28;19908;-94
2022/01/23 01:16:02;;;;;;;;;;;-1.90;99.90;;;;;;5059795;28;19904;-95
2022/01/23 01:36:37;;;;;;;;;;;-1.70;99.90;;;;;;5080341;28;20426;-95
2022/01/23 01:39:16;;;;;;;;;;;;;;;;;;;;;
2022/01/23 01:41:50;;;;;;;;;;;-1.50;99.90;;;;;;5073318;28;19948;-95
2022/01/23 01:44:36;;;;;;;;;;;-1.60;99.90;;;;;;5045847;28;19940;-95
2022/01/23 01:47:08;;;;;;;;;;;-1.50;99.90;;;;;;5062701;28;19959;-96
2022/01/23 01:49:47;;;;;;;;;;;-1.50;99.90;;;;;;5062048;28;19909;-96
2022/01/23 01:52:36;;;;;;;;;;;-1.50;99.90;;;;;;5061170;28;19910;-96
2022/01/23 01:55:21;;;;;;;;;;;;;;;;;;;;;
2022/01/23 01:59:07;;;;;;;;;;;;;;;;;;;;;
2022/01/23 02:22:27;;;;;;;;;;;-1.70;99.90;;;;;;4997848;28;19918;-95
2022/01/23 02:50:36;;;;;;;;;;;-1.70;99.90;;;;;;4955283;29;19957;-95
2022/01/23 02:57:21;;;;;;;;;;;;;;;;;;;;;
2022/01/23 03:03:05;;;;;;;;;;;-1.60;99.90;;;;;;5096997;28;19900;-94
2022/01/23 03:05:41;;;;;;;;;;;-1.60;99.90;;;;;;5078206;28;19959;-94
2022/01/23 03:08:29;;;;;;;;;;;-1.60;99.90;;;;;;5079761;28;19912;-95
2022/01/23 03:11:42;;;;;;;;;;;-1.50;99.90;;;;;;5079180;28;19913;-94
2022/01/23 03:14:34;;;;;;;;;;;;;;;;;;;;;
2022/01/23 03:28:33;;;;;;;;;;;-1.50;99.90;;;;;;5095148;28;19908;-95
2022/01/23 03:31:20;;;;;;;;;;;-1.50;99.90;;;;;;5078645;28;19908;-95
2022/01/23 03:33:51;;;;;;;;;;;-1.50;99.90;;;;;;5077540;28;19912;-95
2022/01/23 03:36:25;;;;;;;;;;;-1.40;99.90;;;;;;5079384;28;19995;-94
2022/01/23 03:39:15;;;;;;;;;;;-1.40;99.90;;;;;;5077583;28;20362;-94
2022/01/23 03:44:40;;;;;;;;;;;-1.50;99.90;;;;;;5096110;28;19896;-94
2022/01/23 03:47:33;;;;;;;;;;;-1.50;99.90;;;;;;5060923;28;19916;-94
2022/01/23 03:50:19;;;;;;;;;;;-1.50;99.90;;;;;;5078000;28;19939;-94
2022/01/23 03:52:55;;;;;;;;;;;-1.60;99.90;;;;;;5078428;28;19909;-94
2022/01/23 03:55:20;;;;;;;;;;;-1.60;99.90;;;;;;5078454;28;19948;-95
2022/01/23 03:57:46;;;;;;;;;;;-1.60;99.90;;;;;;5097961;28;19896;-95
2022/01/23 04:00:17;;;;;;;;;;;-1.60;99.90;;;;;;5079724;28;19975;-94
2022/01/23 04:02:46;;;;;;;;;;;-1.60;99.90;;;;;;5079516;28;19912;-95
2022/01/23 04:05:51;;;;;;;;;;;;;;;;;;;;;
2022/01/23 04:08:26;;;;;;;;;;;-1.60;99.90;;;;;;5096196;28;19951;-95
2022/01/23 04:11:01;;;;;;;;;;;-1.60;99.90;;;;;;5078235;28;19900;-95
2022/01/23 04:13:51;;;;;;;;;;;-1.60;99.90;;;;;;5077692;28;19912;-95
2022/01/23 04:19:35;;;;;;;;;;;-1.70;99.90;;;;;;5092819;28;19909;-95
2022/01/23 04:34:50;;;;;;;;;;;-1.50;99.90;;;;;;5094132;28;20379;-94
2022/01/23 05:04:50;;;;;;;;;;;-1.90;99.90;;;;;;5094269;28;20251;-95
2022/01/23 05:07:17;;;;;;;;;;;-2.00;99.90;;;;;;5077287;28;19931;-96
2022/01/23 05:10:08;;;;;;;;;;;-2.00;99.90;;;;;;5082766;28;19909;-96
2022/01/23 05:12:54;;;;;;;;;;;-2.00;99.90;;;;;;5080290;28;19964;-94
2022/01/23 05:15:27;;;;;;;;;;;-2.10;99.90;;;;;;5065482;28;19916;-95
2022/01/23 05:18:24;;;;;;;;;;;-2.00;99.90;;;;;;5080246;28;19930;-95
2022/01/23 05:21:06;;;;;;;;;;;-2.10;99.90;;;;;;5098681;28;19920;-95
2022/01/23 05:23:35;;;;;;;;;;;-2.10;99.90;;;;;;5098752;28;19896;-95
2022/01/23 05:26:13;;;;;;;;;;;-2.10;99.90;;;;;;5082550;28;19909;-95
2022/01/23 05:28:59;;;;;;;;;;;-2.10;99.90;;;;;;5080586;28;19892;-95
2022/01/23 05:32:01;;;;;;;;;;;-2.20;99.90;;;;;;5098093;28;19930;-94
2022/01/23 05:34:41;;;;;;;;;;;-2.20;99.90;;;;;;5082393;28;19971;-95
2022/01/23 05:37:32;;;;;;;;;;;-2.20;99.90;;;;;;5081424;28;19909;-96
2022/01/23 05:40:13;;;;;;;;;;;-2.20;99.90;;;;;;5066832;28;19912;-96
2022/01/23 05:43:01;;;;;;;;;;;-2.20;99.90;;;;;;5078487;28;19924;-93
2022/01/23 05:45:41;;;;;;;;;;;-2.20;99.90;;;;;;5080208;28;19912;-95
2022/01/23 05:48:30;;;;;;;;;;;-2.20;99.90;;;;;;5097669;28;19983;-94
2022/01/23 05:51:15;;;;;;;;;;;;;;;;;;;;;
2022/01/23 05:53:50;;;;;;;;;;;-2.20;99.90;;;;;;5082177;28;19951;-95
2022/01/23 05:56:31;;;;;;;;;;;-2.10;99.90;;;;;;5064706;28;20397;-93
2022/01/23 05:59:22;;;;;;;;;;;;;;;;;;;;;
2022/01/23 06:01:51;;;;;;;;;;;-2.10;99.90;;;;;;5098615;28;19924;-95
2022/01/23 06:04:30;;;;;;;;;;;-2.10;99.90;;;;;;5080332;28;19924;-95
2022/01/23 06:07:03;;;;;;;;;;;-2.10;99.90;;;;;;5081293;28;19920;-95
2022/01/23 06:09:52;;;;;;;;;;;-2.10;99.90;;;;;;5062981;28;19917;-94
2022/01/23 06:12:28;;;;;;;;;;;;;;;;;;;;;
2022/01/23 06:15:16;;;;;;;;;;;-2.20;99.90;;;;;;5098773;28;19908;-95
2022/01/23 06:17:57;;;;;;;;;;;-2.20;99.90;;;;;;5068361;28;19905;-95
2022/01/23 06:20:30;;;;;;;;;;;-2.30;99.90;;;;;;5078970;28;19909;-95
2022/01/23 06:25:45;;;;;;;;;;;-2.40;99.90;;;;;;5054538;28;19937;-95
2022/01/23 06:28:36;;;;;;;;;;;-2.40;99.90;;;;;;5055061;28;19910;-95
2022/01/23 06:31:06;;;;;;;;;;;-2.40;99.90;;;;;;5056208;28;19893;-95
2022/01/23 06:33:55;;;;;;;;;;;-2.40;99.90;;;;;;5056923;28;19972;-95
2022/01/23 06:36:48;;;;;;;;;;;;;;;;;;;;;
2022/01/23 06:39:33;;;;;;;;;;;-2.40;99.90;;;;;;5056004;28;19910;-96
2022/01/23 06:42:01;;;;;;;;;;;-2.30;99.90;;;;;;5057147;28;20399;-96
2022/01/23 06:44:41;;;;;;;;;;;-2.20;99.90;;;;;;5055518;28;19924;-95
2022/01/23 06:47:18;;;;;;;;;;;-2.20;99.90;;;;;;5056618;28;19941;-95
2022/01/23 06:49:58;;;;;;;;;;;-2.10;99.90;;;;;;5056877;28;19916;-96
2022/01/23 06:52:37;;;;;;;;;;;-2.00;99.90;;;;;;5056380;28;19915;-95
2022/01/23 06:55:31;;;;;;;;;;;-2.00;99.90;;;;;;5096789;28;19931;-96
2022/01/23 06:58:19;;;;;;;;;;;-1.90;99.90;;;;;;5079723;28;19892;-95
2022/01/23 07:03:37;;;;;;;;;;;-2.00;99.90;;;;;;5079470;28;19912;-95
2022/01/23 07:06:22;;;;;;;;;;;-1.90;99.90;;;;;;5078770;28;20000;-96
2022/01/23 07:11:44;;;;;;;;;;;-1.90;99.90;;;;;;5083344;28;19914;-96
2022/01/23 07:14:42;;;;;;;;;;;-1.90;99.90;;;;;;5080311;28;19915;-95
2022/01/23 07:17:29;;;;;;;;;;;-1.90;99.90;;;;;;5080198;28;19947;-95
2022/01/23 07:20:08;;;;;;;;;;;-1.80;99.90;;;;;;5080042;28;19958;-94
2022/01/23 07:22:54;;;;;;;;;;;;;;;;;;;;;
2022/01/23 07:25:43;;;;;;;;;;;-1.60;99.90;;;;;;5097453;28;19931;-95
2022/01/23 07:28:31;;;;;;;;;;;;;;;;;;;;;
2022/01/23 07:31:00;;;;;;;;;;;-1.50;99.40;;;;;;5096355;28;19919;-95
2022/01/23 07:33:40;;;;;;;;;;;-1.50;99.90;;;;;;5089905;28;19912;-95
2022/01/23 07:37:04;;;;;;;;;;;-1.40;99.90;;;;;;5079504;28;19998;-96
2022/01/23 07:39:14;;;;;;;;;;;-1.30;99.90;;;;;;5084184;28;19908;-96
2022/01/23 07:41:50;;;;;;;;;;;-1.30;98.80;;;;;;5079213;28;19912;-95
2022/01/23 07:44:36;;;;;;;;;;;-1.20;99.90;;;;;;5078070;28;19913;-95
2022/01/23 07:47:13;;;;;;;;;;;-1.20;99.80;;;;;;5077731;28;19909;-95
2022/01/23 07:49:41;;;;;;;;;;;-1.10;99.70;;;;;;5078207;28;20003;-95
2022/01/23 07:55:26;;;;;;;;;;;-1.00;99.90;;;;;;5085462;28;19958;-95
2022/01/23 07:58:27;;;;;;;;;;;-0.90;99.00;;;;;;5075784;28;20003;-95
2022/01/23 08:00:55;;;;;;;;;;;-0.90;97.10;;;;;;5076892;28;19916;-94
2022/01/23 08:03:24;;;;;;;;;;;-0.90;97.60;;;;;;5080345;28;19913;-94
2022/01/23 08:05:53;;;;;;;;;;;-1.00;98.00;;;;;;5076714;28;19916;-95
2022/01/23 08:08:40;;;;;;;;;;;-1.00;97.00;;;;;;5078066;28;19947;-94
2022/01/23 08:11:28;;;;;;;;;;;;;;;;;;;;;
2022/01/23 08:13:54;;;;;;;;;;;-1.20;97.60;;;;;;5096974;28;19952;-93
2022/01/23 08:16:32;;;;;;;;;;;-1.30;97.60;;;;;;5059291;28;19920;-95
2022/01/23 08:19:22;;;;;;;;;;;-1.30;97.90;;;;;;5073997;28;20368;-95
2022/01/23 08:22:01;;;;;;;;;;;-1.40;97.90;;;;;;5073581;28;19913;-95
2022/01/23 08:24:34;;;;;;;;;;;-1.60;97.30;;;;;;5075760;28;19956;-94
2022/01/23 08:30:03;;;;;;;;;;;-1.80;98.40;;;;;;5085176;28;19912;-94
2022/01/23 08:32:47;;;;;;;;;;;-1.90;98.50;;;;;;5076157;28;19909;-95
2022/01/23 08:35:28;;;;;;;;;;;-2.00;98.50;;;;;;5092860;28;20004;-95
2022/01/23 08:38:06;;;;;;;;;;;-1.90;99.20;;;;;;5077713;28;19893;-95
2022/01/23 08:43:21;;;;;;;;;;;-1.70;99.90;;;;;;5090849;28;19912;-94
2022/01/23 08:45:54;;;;;;;;;;;-1.60;99.90;;;;;;5075649;28;19919;-94
2022/01/23 08:48:42;;;;;;;;;;;-1.50;99.60;;;;;;5074582;28;19893;-95
2022/01/23 08:51:37;;;;;;;;;;;-1.40;99.20;;;;;;5063184;28;19912;-94
2022/01/23 08:54:07;;;;;;;;;;;-1.30;99.70;;;;;;5072709;28;19915;-96
2022/01/23 08:56:42;;;;;;;;;;;-1.20;99.40;;;;;;5075545;28;19964;-95
2022/01/23 08:59:41;;;;;;;;;;;-1.00;98.50;;;;;;5077578;28;19893;-95
2022/01/23 09:08:05;;;;;;;;;;;-0.70;97.00;;;;;;5089304;28;19951;-95
2022/01/23 09:10:42;;;;;;;;;;;-0.80;96.10;;;;;;5074336;28;19913;-95
2022/01/23 09:16:31;;;;;;;;;;;-0.70;97.60;;;;;;5037128;28;19950;-94
2022/01/23 09:21:58;;;;;;;;;;;-0.50;95.90;;;;;;5083988;28;19924;-95
2022/01/23 09:24:37;;;;;;;;;;;-0.30;95.10;;;;;;5095943;28;19919;-94
2022/01/23 09:33:17;;;;;;;;;;;0.10;93.90;;;;;;5086162;28;19909;-93
2022/01/23 09:36:09;;;;;;;;;;;0.30;94.70;;;;;;5090356;28;20371;-94
2022/01/23 09:38:49;;;;;;;;;;;0.40;94.10;;;;;;5078583;28;19924;-94
2022/01/23 09:41:46;;;;;;;;;;;0.40;93.70;;;;;;5078216;28;19912;-94
2022/01/23 09:47:19;;;;;;;;;;;0.80;93.60;;;;;;5353194;22;19913;-94
2022/01/23 09:50:03;;;;;;;;;;;;;;;;;;;;;
2022/01/23 09:53:05;;;;;;;;;;;1.40;95.70;;;;;;5199561;22;20403;-93
2022/01/23 11:56:57;;;;;;;;;;;;;;;;;;;;;
2022/01/23 11:59:48;;;;;;;;;;;0.50;92.40;;;;;;4942444;29;19978;-96
2022/01/23 12:02:27;;;;;;;;;;;0.50;93.70;;;;;;4944122;29;19986;-95
2022/01/23 12:05:17;;;;;;;;;;;0.50;93.80;;;;;;4928100;29;19922;-96
2022/01/23 12:08:14;;;;;;;;;;;0.40;93.20;;;;;;4938145;29;19971;-94
2022/01/23 12:11:06;;;;;;;;;;;0.30;92.80;;;;;;4946865;29;19933;-96
2022/01/23 12:13:56;;;;;;;;;;;0.30;94.20;;;;;;4954627;28;19911;-96
2022/01/23 12:16:48;;;;;;;;;;;0.30;94.70;;;;;;4954674;29;19899;-96
2022/01/23 12:22:45;;;;;;;;;;;0.50;94.90;;;;;;5017332;23;19957;-95
2022/01/23 12:25:33;;;;;;;;;;;0.50;92.00;;;;;;5006298;28;19914;-96
2022/01/23 12:28:31;;;;;;;;;;;;;;;;;;;;;
2022/01/23 16:35:19;;;;;;;;;;;-1.60;99.60;;;;;;4985322;28;19929;-94
2022/01/23 16:54:46;;;;;;;;;;;-1.60;99.40;;;;;;4986154;28;19926;-93
2022/01/23 16:57:15;;;;;;;;;;;-1.50;99.50;;;;;;4967589;28;19952;-90
2022/01/23 16:59:41;;;;;;;;;;;-1.50;99.30;;;;;;4964359;29;19911;-92
2022/01/23 17:02:07;;;;;;;;;;;-1.50;99.40;;;;;;4949576;28;19969;-94
2022/01/23 17:04:34;;;;;;;;;;;-1.50;99.70;;;;;;4959361;28;20290;-92
2022/01/23 17:07:03;;;;;;;;;;;-1.50;99.50;;;;;;4965501;28;19946;-93
2022/01/23 17:09:34;;;;;;;;;;;-1.40;99.50;;;;;;4966241;28;19917;-93
2022/01/23 17:12:03;;;;;;;;;;;-1.40;99.40;;;;;;4957740;29;19960;-94
2022/01/23 17:14:31;;;;;;;;;;;-1.40;99.30;;;;;;4962540;28;19933;-94
2022/01/23 17:16:57;;;;;;;;;;;-1.40;99.40;;;;;;4968350;28;19983;-94
2022/01/23 17:19:25;;;;;;;;;;;-1.40;99.20;;;;;;4968444;28;21259;-94
2022/01/23 17:21:51;;;;;;;;;;;-1.40;99.00;;;;;;4968876;28;19973;-93
2022/01/23 17:24:19;;;;;;;;;;;-1.50;99.10;;;;;;4964606;28;19910;-93
2022/01/23 17:26:47;;;;;;;;;;;-1.50;99.20;;;;;;4965800;28;19910;-93
2022/01/23 17:29:23;;;;;;;;;;;-1.50;99.30;;;;;;4964437;28;19910;-93
2022/01/23 17:31:49;;;;;;;;;;;-1.50;99.50;;;;;;4965179;28;19961;-93
2022/01/23 17:34:19;;;;;;;;;;;-1.50;99.50;;;;;;4952543;29;19914;-94
2022/01/23 17:37:01;;;;;;;;;;;-1.50;99.60;;;;;;4948524;29;19915;-93
2022/01/23 17:39:27;;;;;;;;;;;-1.50;99.70;;;;;;4947422;29;20009;-93
2022/01/23 17:41:56;;;;;;;;;;;-1.60;99.80;;;;;;4949804;29;19967;-93
2022/01/23 17:44:24;;;;;;;;;;;-1.60;99.80;;;;;;4947747;29;19917;-93
2022/01/23 17:47:04;;;;;;;;;;;-1.60;99.90;;;;;;4945896;29;20013;-93
2022/01/23 17:49:52;;;;;;;;;;;-1.50;99.90;;;;;;4947893;29;19915;-92
2022/01/23 17:52:21;;;;;;;;;;;-1.50;99.90;;;;;;4951372;29;19918;-93
2022/01/23 17:54:55;;;;;;;;;;;-1.50;99.80;;;;;;4948687;29;19966;-91
2022/01/23 17:57:21;;;;;;;;;;;-1.40;99.90;;;;;;4949052;29;19921;-92
2022/01/23 17:59:51;;;;;;;;;;;-1.40;99.90;;;;;;4950934;29;19915;-93
2022/01/23 18:02:28;;;;;;;;;;;;;;;;;;;;;
2022/01/23 18:04:59;;;;;;;;;;;-1.30;99.90;;;;;;4963042;28;19911;-93
2022/01/23 18:07:24;;;;;;;;;;;-1.30;99.70;;;;;;4963472;29;19915;-92
2022/01/23 18:09:58;;;;;;;;;;;-1.30;99.60;;;;;;4963123;29;20031;-94
2022/01/23 18:12:31;;;;;;;;;;;-1.30;99.70;;;;;;4952765;29;19911;-93
2022/01/23 18:15:22;;;;;;;;;;;-1.30;99.50;;;;;;4955225;29;19911;-94
2022/01/23 18:17:58;;;;;;;;;;;-1.30;99.50;;;;;;4960139;29;19895;-95
2022/01/23 18:20:56;;;;;;;;;;;;;;;;;;;;;
2022/01/23 18:24:01;;;;;;;;;;;;;;;;;;;;;
2022/01/23 18:26:57;;;;;;;;;;;;;;;;;;;;;
2022/01/23 18:29:53;;;;;;;;;;;-1.40;99.40;;;;;;4970099;29;19937;-94
2022/01/23 18:32:41;;;;;;;;;;;-1.40;99.40;;;;;;4975022;29;19910;-94
2022/01/23 18:35:23;;;;;;;;;;;-1.40;99.10;;;;;;4958751;29;19917;-93
2022/01/23 18:37:51;;;;;;;;;;;-1.40;98.90;;;;;;4958667;29;19954;-95
2022/01/23 18:40:27;;;;;;;;;;;-1.40;98.60;;;;;;4958582;29;19911;-94
2022/01/23 18:43:18;;;;;;;;;;;-1.40;98.80;;;;;;4960223;29;19926;-94
2022/01/23 18:49:09;;;;;;;;;;;-1.40;98.50;;;;;;4972435;29;19934;-95
2022/01/23 19:12:59;;;;;;;;;;;-1.50;98.10;;;;;;4931299;29;19917;-94
2022/01/23 19:15:38;;;;;;;;;;;-1.50;97.70;;;;;;4935475;29;19981;-93
2022/01/23 19:24:08;;;;;;;;;;;-1.50;97.70;;;;;;4982778;28;20401;-95
2022/01/23 19:33:36;;;;;;;;;;;-1.60;97.70;;;;;;4972592;28;19914;-94
2022/01/23 19:45:36;;;;;;;;;;;;;;;;;;;;;
2022/01/23 19:54:35;;;;;;;;;;;-1.50;97.40;;;;;;4981067;28;19929;-95
2022/01/23 19:59:52;;;;;;;;;;;-1.50;97.00;;;;;;4987283;28;20060;-94
2022/01/23 20:02:50;;;;;;;;;;;;;;;;;;;;;
2022/01/23 20:05:46;;;;;;;;;;;;;;;;;;;;;
2022/01/23 20:08:32;;;;;;;;;;;;;;;;;;;;;
2022/01/23 20:12:43;;;;;;;;;;;-1.60;97.20;;;;;;4994066;28;19942;-94
2022/01/23 20:14:18;;;;;;;;;;;;;;;;;;;;;
2022/01/23 20:17:27;;;;;;;;;;;-1.70;97.70;;;;;;4992725;28;19946;-94
2022/01/23 20:23:37;;;;;;;;;;;;;;;;;;;;;
2022/01/23 20:26:18;;;;;;;;;;;;;;;;;;;;;
2022/01/23 20:29:01;;;;;;;;;;;-1.70;98.10;;;;;;4993108;28;19941;-93
2022/01/23 20:31:48;;;;;;;;;;;;;;;;;;;;;
2022/01/23 20:37:27;;;;;;;;;;;;;;;;;;;;;
2022/01/23 20:40:12;;;;;;;;;;;;;;;;;;;;;
2022/01/23 20:55:15;;;;;;;;;;;;;;;;;;;;;
2022/01/23 20:58:01;;;;;;;;;;;;;;;;;;;;;
2022/01/23 21:00:37;;;;;;;;;;;-1.60;96.30;;;;;;4971424;29;19942;-95
2022/01/23 21:03:12;;;;;;;;;;;-1.60;96.10;;;;;;4954181;29;19918;-95
2022/01/23 21:05:52;;;;;;;;;;;-1.60;95.40;;;;;;4964006;29;19910;-95
2022/01/23 21:15:53;;;;;;;;;;;-1.60;94.70;;;;;;4857770;29;19937;-94
2022/01/23 21:53:39;;;;;;;;;;;-2.00;95.20;;;;;;4974295;29;19974;-95
2022/01/23 22:11:38;;;;;;;;;;;-2.10;95.80;;;;;;4992910;28;19917;-94
2022/01/23 22:17:29;;;;;;;;;;;-2.10;95.60;;;;;;4992888;28;19917;-94
2022/01/23 22:20:20;;;;;;;;;;;-2.10;95.50;;;;;;4991821;28;19916;-94
2022/01/23 22:34:57;;;;;;;;;;;-2.20;95.60;;;;;;4895724;29;19919;-91
2022/01/23 22:37:41;;;;;;;;;;;-2.30;95.40;;;;;;4879161;29;19923;-95
2022/01/23 22:40:16;;;;;;;;;;;-2.30;95.40;;;;;;4904731;28;19910;-95
2022/01/23 22:43:10;;;;;;;;;;;-2.30;95.50;;;;;;4976202;28;19925;-94
2022/01/23 22:48:44;;;;;;;;;;;-2.30;95.90;;;;;;4992760;28;19961;-95
2022/01/23 22:51:30;;;;;;;;;;;-2.40;95.60;;;;;;4975298;28;19997;-94
2022/01/23 22:54:33;;;;;;;;;;;-2.40;95.80;;;;;;4976751;28;19910;-95
2022/01/23 22:57:06;;;;;;;;;;;-2.50;96.00;;;;;;4976547;28;20250;-93
2022/01/23 23:03:01;;;;;;;;;;;;;;;;;;;;;
2022/01/23 23:05:35;;;;;;;;;;;-2.70;97.10;;;;;;4995184;28;19957;-94
2022/01/23 23:08:19;;;;;;;;;;;;;;;;;;;;;
2022/01/23 23:20:29;;;;;;;;;;;;;;;;;;;;;
2022/01/23 23:22:58;;;;;;;;;;;-3.00;97.90;;;;;;4932905;29;19974;-95
2022/01/23 23:31:37;;;;;;;;;;;-2.90;98.10;;;;;;4973361;28;19917;-94
2022/01/23 23:34:28;;;;;;;;;;;-2.90;98.30;;;;;;4979690;28;19910;-95
2022/01/23 23:37:15;;;;;;;;;;;-2.90;98.20;;;;;;4969394;28;19942;-91
2022/01/23 23:39:56;;;;;;;;;;;-2.90;98.20;;;;;;4989027;28;19914;-92
2022/01/23 23:43:01;;;;;;;;;;;;;;;;;;;;;
2022/01/23 23:45:41;;;;;;;;;;;-2.90;97.90;;;;;;4990919;28;19958;-95
2022/01/23 23:48:15;;;;;;;;;;;-2.90;98.10;;;;;;4975166;28;19945;-92
2022/01/23 23:50:55;;;;;;;;;;;-2.90;97.90;;;;;;4974198;28;19964;-92
2022/01/23 23:53:25;;;;;;;;;;;-2.90;98.00;;;;;;4973305;28;19914;-91
2022/01/23 23:55:57;;;;;;;;;;;-2.90;97.90;;;;;;4973611;28;19914;-93
2022/01/23 23:58:31;;;;;;;;;;;-3.00;97.80;;;;;;4990626;28;19914;-93
